Terminal Aerodrome Forecast
Issued by NWS Quad Cities IA IL

Home | Current Version | Previous Version | Text Only | Print | Product List | Glossary On
Versions: 1 2 3 4 5 6 7 8 9 10 11 12 13 14 15 16 17 18 19
000
FTUS43 KDVN 231700
TAFDBQ
TAF
KDBQ 231720Z 2318/2418 20009KT P6SM SCT250
     FM232200 17008KT P6SM FEW120 SCT250
     FM240100 15005KT P6SM SCT120 BKN250
     FM241300 16006KT P6SM BKN120 BKN250=

USA.gov is the U.S. government's official web portal to all federal, state and local government web resources and services.